Time;durP1;ratioP1;P1;durP2;ratioP2;P2;SDS_P1;SDS_P2;PMS_P1;PMS_P2;Temp;Humidity;BMP_temperature;BMP_pressure;BME280_temperature;BME280_humidity;BME280_pressure;Samples;Min_cycle;Max_cycle;Signal;HPM_P1;HPM_P2
2022/08/01 00:00:12;;;;;;;2.07;1.10;;;19.40;88.40;;;;;;5096868;28;20191;-69
2022/08/01 00:02:38;;;;;;;2.07;1.30;;;19.50;88.30;;;;;;5110407;28;20209;-69
2022/08/01 00:05:08;;;;;;;2.10;1.00;;;19.50;88.10;;;;;;5097583;28;20754;-69
2022/08/01 00:07:34;;;;;;;10.33;1.77;;;19.50;87.70;;;;;;5097308;28;20804;-69
2022/08/01 00:10:01;;;;;;;3.37;1.23;;;19.50;87.90;;;;;;5097533;28;20471;-69
2022/08/01 00:12:26;;;;;;;2.23;1.03;;;19.50;87.60;;;;;;5096860;28;21047;-69
2022/08/01 00:14:52;;;;;;;3.10;1.80;;;19.50;87.50;;;;;;5104998;28;20457;-69
2022/08/01 00:17:17;;;;;;;9.63;1.50;;;19.50;87.90;;;;;;5102214;28;20211;-69
2022/08/01 00:19:43;;;;;;;2.53;1.33;;;19.50;89.20;;;;;;5096885;28;20176;-69
2022/08/01 00:22:09;;;;;;;3.97;1.40;;;19.50;88.30;;;;;;5085735;28;20527;-69
2022/08/01 00:24:34;;;;;;;2.33;1.30;;;19.50;88.70;;;;;;5090625;28;20271;-69
2022/08/01 00:27:00;;;;;;;2.47;1.30;;;19.50;88.10;;;;;;5098507;28;20183;-69
2022/08/01 00:29:26;;;;;;;3.57;1.77;;;19.50;88.50;;;;;;5098348;28;20232;-69
2022/08/01 00:31:51;;;;;;;2.90;1.40;;;19.60;88.50;;;;;;5093849;28;20180;-69
2022/08/01 00:34:17;;;;;;;3.90;1.80;;;19.50;89.40;;;;;;5095880;28;20192;-69
2022/08/01 00:36:43;;;;;;;3.67;1.23;;;19.50;88.50;;;;;;5092947;28;20647;-70
2022/08/01 00:39:08;;;;;;;2.23;1.27;;;19.50;88.60;;;;;;5093833;28;20262;-70
2022/08/01 00:41:34;;;;;;;3.37;1.70;;;19.50;88.40;;;;;;5093427;28;20243;-70
2022/08/01 00:44:04;;;;;;;4.47;1.00;;;19.50;88.40;;;;;;5093640;28;20221;-70
2022/08/01 00:46:29;;;;;;;2.57;1.47;;;19.50;89.00;;;;;;5093130;28;20635;-70
2022/08/01 00:48:55;;;;;;;2.30;0.90;;;19.50;88.80;;;;;;5093762;28;20454;-69
2022/08/01 00:51:22;;;;;;;8.87;2.00;;;19.40;88.90;;;;;;5093327;28;20263;-70
2022/08/01 00:53:48;;;;;;;10.63;1.90;;;19.40;89.30;;;;;;5093758;28;20803;-70
2022/08/01 00:56:14;;;;;;;2.97;1.50;;;19.40;89.30;;;;;;5082701;28;20519;-69
2022/08/01 00:58:40;;;;;;;3.50;1.30;;;19.30;89.50;;;;;;5081235;28;20541;-70
2022/08/01 01:01:05;;;;;;;3.47;1.77;;;19.30;89.20;;;;;;5092480;28;20585;-69
2022/08/01 01:03:31;;;;;;;3.00;1.37;;;19.30;90.00;;;;;;5093704;28;20873;-70
2022/08/01 01:06:24;;;;;;;2.80;1.50;;;19.30;89.90;;;;;;5093505;28;20218;-70
2022/08/01 01:09:11;;;;;;;2.50;1.40;;;19.20;90.00;;;;;;5093639;28;20422;-69
2022/08/01 01:11:47;;;;;;;3.40;1.83;;;19.10;90.20;;;;;;5080319;28;20426;-70
2022/08/01 01:14:31;;;;;;;2.30;1.40;;;19.10;90.40;;;;;;5093044;28;20418;-69
2022/08/01 01:17:00;;;;;;;2.33;1.37;;;19.00;90.60;;;;;;5092716;28;20445;-70
2022/08/01 01:19:30;;;;;;;4.60;1.67;;;19.00;90.70;;;;;;5092431;28;20422;-70
2022/08/01 01:22:17;;;;;;;3.90;1.70;;;18.90;90.80;;;;;;5092634;28;20418;-69
2022/08/01 01:25:16;;;;;;;2.67;1.47;;;18.90;90.70;;;;;;5093101;28;20410;-70
2022/08/01 01:28:12;;;;;;;2.73;1.33;;;18.90;90.70;;;;;;5092928;28;20441;-69
2022/08/01 01:30:39;;;;;;;3.63;1.53;;;18.90;90.80;;;;;;5092187;28;20444;-70
2022/08/01 01:33:09;;;;;;;7.50;1.60;;;18.90;91.00;;;;;;5092376;28;20424;-69
2022/08/01 01:35:38;;;;;;;3.77;1.10;;;18.80;90.70;;;;;;5092752;28;20428;-70
2022/08/01 01:38:21;;;;;;;4.47;1.70;;;18.80;91.00;;;;;;5092850;28;20965;-70
2022/08/01 01:40:48;;;;;;;2.47;1.50;;;18.70;91.20;;;;;;5092811;28;20402;-70
2022/08/01 01:43:15;;;;;;;6.43;1.77;;;18.70;91.30;;;;;;5091080;28;20539;-69
2022/08/01 01:45:43;;;;;;;2.70;1.20;;;18.60;91.30;;;;;;5092054;28;20937;-70
2022/08/01 01:48:12;;;;;;;4.07;1.90;;;18.60;91.50;;;;;;5092426;28;21090;-70
2022/08/01 01:50:41;;;;;;;3.87;1.63;;;18.60;91.90;;;;;;5092096;28;20425;-69
2022/08/01 01:53:10;;;;;;;4.90;1.67;;;18.50;92.20;;;;;;5092094;28;20426;-70
2022/08/01 01:55:38;;;;;;;3.03;1.80;;;18.50;92.00;;;;;;5086826;28;20447;-70
2022/08/01 01:58:07;;;;;;;3.70;1.77;;;18.50;92.20;;;;;;5075321;28;20470;-69
2022/08/01 02:00:35;;;;;;;3.80;1.50;;;18.50;92.40;;;;;;5091747;28;20423;-69
2022/08/01 02:03:05;;;;;;;7.43;1.53;;;18.40;92.70;;;;;;5091809;28;20410;-69
2022/08/01 02:05:34;;;;;;;4.13;1.30;;;18.40;93.10;;;;;;5092066;28;20937;-70
2022/08/01 02:08:01;;;;;;;5.17;1.93;;;18.30;93.10;;;;;;5092279;28;20475;-69
2022/08/01 02:10:29;;;;;;;6.13;2.03;;;18.30;93.10;;;;;;5092054;28;21174;-70
2022/08/01 02:12:57;;;;;;;4.20;1.73;;;18.30;92.90;;;;;;5091799;28;20437;-69
2022/08/01 02:15:24;;;;;;;3.10;1.33;;;18.30;92.90;;;;;;5091441;28;20858;-70
2022/08/01 02:17:50;;;;;;;3.27;1.83;;;18.40;93.00;;;;;;5091045;28;20953;-70
2022/08/01 02:20:17;;;;;;;4.40;2.00;;;18.40;93.10;;;;;;5091947;28;20422;-70
2022/08/01 02:22:57;;;;;;;2.67;1.00;;;18.40;92.80;;;;;;5087965;28;20515;-69
2022/08/01 02:25:28;;;;;;;3.60;1.30;;;18.40;93.10;;;;;;5072078;28;20415;-70
2022/08/01 02:28:05;;;;;;;3.50;2.03;;;18.40;93.30;;;;;;5091986;28;20797;-69
2022/08/01 02:30:35;;;;;;;3.33;1.63;;;18.40;92.90;;;;;;5090873;28;20426;-70
2022/08/01 02:33:13;;;;;;;3.17;1.50;;;18.40;93.10;;;;;;5090783;28;20426;-70
2022/08/01 02:35:41;;;;;;;2.77;1.60;;;18.40;93.40;;;;;;5091784;28;20465;-70
2022/08/01 02:38:10;;;;;;;2.43;1.40;;;18.40;93.50;;;;;;5091852;28;20462;-70
2022/08/01 02:40:41;;;;;;;4.83;1.60;;;18.40;93.80;;;;;;5091485;28;20402;-69
2022/08/01 02:43:09;;;;;;;2.77;1.47;;;18.30;93.70;;;;;;5091448;28;20454;-70
2022/08/01 02:45:38;;;;;;;6.23;2.20;;;18.30;93.80;;;;;;5091092;28;20429;-70
2022/08/01 02:48:11;;;;;;;3.60;1.80;;;18.30;94.10;;;;;;5091621;28;20797;-70
2022/08/01 02:50:38;;;;;;;2.37;1.37;;;18.20;94.30;;;;;;5091375;28;20422;-69
2022/08/01 02:53:06;;;;;;;4.00;1.53;;;18.20;94.60;;;;;;5091079;28;20531;-69
2022/08/01 02:55:33;;;;;;;4.00;2.20;;;18.20;94.60;;;;;;5085842;28;20447;-69
2022/08/01 02:58:02;;;;;;;2.83;1.80;;;18.20;94.70;;;;;;5073635;28;20458;-69
2022/08/01 03:00:30;;;;;;;2.13;1.27;;;18.10;94.80;;;;;;5090593;28;20418;-69
2022/08/01 03:02:58;;;;;;;4.23;1.80;;;18.20;94.70;;;;;;5090630;28;20430;-69
2022/08/01 03:05:25;;;;;;;6.77;1.80;;;18.20;94.90;;;;;;5091024;28;20468;-69
2022/08/01 03:07:53;;;;;;;2.17;1.30;;;18.20;95.10;;;;;;5091233;28;20426;-69
2022/08/01 03:10:19;;;;;;;3.37;1.70;;;18.20;95.10;;;;;;5091326;28;20448;-69
2022/08/01 03:12:48;;;;;;;7.33;2.03;;;18.30;95.20;;;;;;5090886;28;20430;-69
2022/08/01 03:15:15;;;;;;;3.23;1.50;;;18.30;95.20;;;;;;5090601;28;20426;-69
2022/08/01 03:17:42;;;;;;;3.40;1.83;;;18.40;95.30;;;;;;5090234;28;20473;-70
2022/08/01 03:20:10;;;;;;;3.30;1.97;;;18.40;95.40;;;;;;5090997;28;20497;-69
2022/08/01 03:22:38;;;;;;;7.23;1.87;;;18.40;95.50;;;;;;5090640;28;20422;-69
2022/08/01 03:25:06;;;;;;;3.53;1.97;;;18.40;95.60;;;;;;5091263;28;20423;-69
2022/08/01 03:27:34;;;;;;;4.53;1.30;;;18.40;95.50;;;;;;5091153;28;20427;-69
2022/08/01 03:30:04;;;;;;;6.07;2.00;;;18.40;95.70;;;;;;5090762;28;20433;-69
2022/08/01 03:32:31;;;;;;;2.63;1.60;;;18.40;95.70;;;;;;5090283;28;20462;-69
2022/08/01 03:34:57;;;;;;;3.10;1.63;;;18.40;95.80;;;;;;5091151;28;20949;-70
2022/08/01 03:37:27;;;;;;;3.63;1.70;;;18.30;96.30;;;;;;5091060;28;20462;-69
2022/08/01 03:40:01;;;;;;;2.90;1.33;;;18.20;96.60;;;;;;5091225;28;20434;-69
2022/08/01 03:42:38;;;;;;;6.60;2.30;;;18.10;97.20;;;;;;5090527;28;20439;-70
2022/08/01 03:45:09;;;;;;;3.73;1.53;;;18.00;97.70;;;;;;5090791;28;20426;-70
2022/08/01 03:47:36;;;;;;;7.23;1.80;;;17.90;97.80;;;;;;5090812;28;20426;-69
2022/08/01 03:50:06;;;;;;;3.43;1.70;;;17.80;98.10;;;;;;5090817;28;20509;-69
2022/08/01 03:52:33;;;;;;;3.90;1.73;;;17.70;98.20;;;;;;5090453;28;20429;-69
2022/08/01 03:55:02;;;;;;;3.23;1.50;;;17.60;98.20;;;;;;5090563;28;20450;-70
2022/08/01 03:57:29;;;;;;;5.23;2.23;;;17.40;98.50;;;;;;5090907;28;20818;-69
2022/08/01 03:59:57;;;;;;;3.20;1.93;;;17.30;99.10;;;;;;5090603;28;20421;-69
2022/08/01 04:02:23;;;;;;;9.80;1.43;;;17.20;99.30;;;;;;5090164;28;20429;-69
2022/08/01 04:04:49;;;;;;;3.73;1.80;;;17.10;99.70;;;;;;5090891;28;20929;-69
2022/08/01 04:07:29;;;;;;;2.50;1.30;;;17.00;99.90;;;;;;5074938;28;20434;-69
2022/08/01 04:09:55;;;;;;;4.40;2.17;;;17.00;99.90;;;;;;5094933;28;20192;-69
2022/08/01 04:12:21;;;;;;;4.00;2.00;;;17.00;99.90;;;;;;5094117;28;20447;-69
2022/08/01 04:14:48;;;;;;;3.40;2.00;;;16.90;99.90;;;;;;5094606;28;20188;-67
2022/08/01 04:17:15;;;;;;;5.40;1.80;;;16.90;99.90;;;;;;5093883;28;20426;-67
2022/08/01 04:19:41;;;;;;;4.13;1.73;;;16.80;99.90;;;;;;5093961;28;20414;-69
2022/08/01 04:22:08;;;;;;;3.73;2.07;;;16.80;99.90;;;;;;5091432;28;20442;-69
2022/08/01 04:24:36;;;;;;;11.30;2.07;;;16.80;99.90;;;;;;5084067;28;20466;-69
2022/08/01 04:27:05;;;;;;;5.87;3.10;;;16.80;99.90;;;;;;5088008;28;20422;-69
2022/08/01 04:29:32;;;;;;;2.93;1.90;;;16.80;99.90;;;;;;5094211;28;20740;-69
2022/08/01 04:32:00;;;;;;;4.87;1.93;;;16.70;99.90;;;;;;5093277;28;20822;-69
2022/08/01 04:34:28;;;;;;;2.80;1.50;;;16.70;99.90;;;;;;5093647;28;20414;-69
2022/08/01 04:36:56;;;;;;;4.53;1.73;;;16.70;99.90;;;;;;5093875;28;20779;-69
2022/08/01 04:39:27;;;;;;;3.23;1.73;;;16.70;99.90;;;;;;5094134;28;20466;-69
2022/08/01 04:41:56;;;;;;;3.60;1.50;;;16.80;99.90;;;;;;5093406;28;20414;-69
2022/08/01 04:44:22;;;;;;;2.47;1.43;;;16.80;99.90;;;;;;5093804;28;20938;-68
2022/08/01 04:46:49;;;;;;;5.13;1.83;;;16.80;99.90;;;;;;5093379;28;20435;-69
2022/08/01 04:49:16;;;;;;;2.57;1.27;;;16.80;99.90;;;;;;5093996;28;20475;-69
2022/08/01 04:51:59;;;;;;;4.80;1.60;;;16.80;99.90;;;;;;5092947;28;20472;-69
2022/08/01 04:54:27;;;;;;;4.07;2.17;;;16.80;99.90;;;;;;5093906;28;20442;-69
2022/08/01 04:57:02;;;;;;;5.00;1.97;;;16.90;99.90;;;;;;5093516;28;20419;-69
2022/08/01 04:59:40;;;;;;;3.40;1.70;;;16.90;99.90;;;;;;5093490;28;20928;-69
2022/08/01 05:02:10;;;;;;;3.13;1.83;;;16.90;99.90;;;;;;5092720;28;20452;-69
2022/08/01 05:04:37;;;;;;;2.97;1.60;;;17.00;99.90;;;;;;5093658;28;20415;-69
2022/08/01 05:07:03;;;;;;;3.80;1.90;;;17.10;99.90;;;;;;5093479;28;20472;-69
2022/08/01 05:09:30;;;;;;;2.50;1.40;;;17.10;99.90;;;;;;5093354;28;20699;-69
2022/08/01 05:11:58;;;;;;;3.23;2.03;;;17.20;99.90;;;;;;5074688;28;21108;-69
2022/08/01 05:14:25;;;;;;;3.10;1.67;;;17.20;99.90;;;;;;5093122;28;20418;-69
2022/08/01 05:16:51;;;;;;;3.43;1.50;;;17.30;99.90;;;;;;5092708;28;20869;-68
2022/08/01 05:19:16;;;;;;;3.10;1.50;;;17.30;99.90;;;;;;5092449;28;20553;-69
2022/08/01 05:21:42;;;;;;;3.70;1.93;;;17.40;99.90;;;;;;5092154;28;20472;-69
2022/08/01 05:24:08;;;;;;;4.13;2.03;;;17.50;99.90;;;;;;5093086;28;20176;-69
2022/08/01 05:26:33;;;;;;;3.07;1.80;;;17.60;99.90;;;;;;5092954;28;20621;-69
2022/08/01 05:29:00;;;;;;;4.70;2.20;;;17.70;99.90;;;;;;5092955;28;20199;-69
2022/08/01 05:31:25;;;;;;;21.70;2.10;;;17.80;99.90;;;;;;5091618;28;20176;-69
2022/08/01 05:33:51;;;;;;;5.30;1.80;;;17.90;99.90;;;;;;5092963;28;20441;-69
2022/08/01 05:36:16;;;;;;;4.17;1.40;;;18.00;99.90;;;;;;5092844;28;20266;-69
2022/08/01 05:38:42;;;;;;;2.83;1.40;;;18.10;99.90;;;;;;5092805;28;20216;-69
2022/08/01 05:41:08;;;;;;;10.00;1.70;;;18.20;99.90;;;;;;5092422;28;20212;-69
2022/08/01 05:43:33;;;;;;;5.63;1.83;;;18.30;99.90;;;;;;5074548;28;20644;-69
2022/08/01 05:45:59;;;;;;;3.00;1.67;;;18.40;99.90;;;;;;5092384;28;20399;-69
2022/08/01 05:48:25;;;;;;;4.57;1.80;;;18.60;99.90;;;;;;5092804;28;20196;-69
2022/08/01 05:50:50;;;;;;;2.07;1.10;;;18.70;99.90;;;;;;5092555;28;20549;-69
2022/08/01 05:53:16;;;;;;;2.23;1.40;;;18.80;99.90;;;;;;5092139;28;20224;-70
2022/08/01 05:55:42;;;;;;;2.90;1.47;;;19.00;99.90;;;;;;5085973;28;20236;-70
2022/08/01 05:58:07;;;;;;;4.07;1.37;;;19.10;99.90;;;;;;5075574;28;20307;-70
2022/08/01 06:00:33;;;;;;;3.13;1.80;;;19.30;99.90;;;;;;5091347;28;20184;-69
2022/08/01 06:02:59;;;;;;;3.17;1.50;;;19.30;99.90;;;;;;5091878;28;20836;-69
2022/08/01 06:05:24;;;;;;;3.10;1.53;;;19.40;99.90;;;;;;5061370;28;20195;-69
2022/08/01 06:07:50;;;;;;;2.60;1.07;;;19.40;99.90;;;;;;5060737;28;20211;-69
2022/08/01 06:10:16;;;;;;;2.70;1.33;;;19.40;99.90;;;;;;5071833;28;20239;-69
2022/08/01 06:12:42;;;;;;;5.17;1.40;;;19.40;99.90;;;;;;5062530;28;20188;-69
2022/08/01 06:15:08;;;;;;;2.10;1.30;;;19.50;99.90;;;;;;5076283;28;20181;-69
2022/08/01 06:17:34;;;;;;;6.33;1.47;;;19.40;99.90;;;;;;5077060;28;20490;-69
2022/08/01 06:19:59;;;;;;;3.57;2.03;;;19.50;99.90;;;;;;5079870;28;20963;-69
2022/08/01 06:22:25;;;;;;;3.00;1.53;;;19.50;99.90;;;;;;5083170;28;20185;-69
2022/08/01 06:24:51;;;;;;;3.50;2.07;;;19.60;99.90;;;;;;5081376;28;20279;-69
2022/08/01 06:27:17;;;;;;;3.37;1.80;;;19.60;99.90;;;;;;5090566;28;21534;-69
2022/08/01 06:29:43;;;;;;;4.33;1.77;;;19.60;99.90;;;;;;5083862;28;20509;-69
2022/08/01 06:32:09;;;;;;;2.07;1.13;;;19.60;99.90;;;;;;5075813;28;20184;-69
2022/08/01 06:34:35;;;;;;;4.27;1.60;;;19.80;99.90;;;;;;5079293;28;20415;-69
2022/08/01 06:37:01;;;;;;;8.90;1.90;;;20.00;99.90;;;;;;5075907;28;20469;-69
2022/08/01 06:39:26;;;;;;;2.23;1.30;;;20.10;99.90;;;;;;5079409;28;20825;-69
2022/08/01 06:41:52;;;;;;;2.50;1.40;;;20.20;99.90;;;;;;5079718;28;20643;-69
2022/08/01 06:44:18;;;;;;;2.13;1.30;;;20.30;99.80;;;;;;5084800;28;20188;-69
2022/08/01 06:46:43;;;;;;;2.33;1.30;;;20.40;99.90;;;;;;5079654;28;20245;-69
2022/08/01 06:49:09;;;;;;;8.53;1.83;;;20.50;99.90;;;;;;5091283;28;20621;-69
2022/08/01 06:51:35;;;;;;;2.20;1.40;;;20.60;99.90;;;;;;5085232;28;20556;-69
2022/08/01 06:54:00;;;;;;;3.13;1.40;;;20.70;99.70;;;;;;5075323;28;20212;-69
2022/08/01 06:56:26;;;;;;;6.03;1.93;;;20.80;98.50;;;;;;5078969;28;20667;-70
2022/08/01 06:58:52;;;;;;;2.40;1.20;;;20.90;99.10;;;;;;5090588;28;20218;-69
2022/08/01 07:01:17;;;;;;;2.83;1.43;;;21.00;98.60;;;;;;5081851;28;20184;-69
2022/08/01 07:03:43;;;;;;;3.80;1.20;;;21.20;98.30;;;;;;5081338;28;20230;-69
2022/08/01 07:06:09;;;;;;;3.20;1.43;;;21.30;98.40;;;;;;5073332;28;20353;-69
2022/08/01 07:08:35;;;;;;;4.17;1.43;;;21.60;98.80;;;;;;5090758;28;20279;-69
2022/08/01 07:11:01;;;;;;;2.30;1.00;;;21.90;97.80;;;;;;5089197;28;20833;-69
2022/08/01 07:13:27;;;;;;;3.10;1.00;;;22.20;97.10;;;;;;5085461;28;20184;-69
2022/08/01 07:15:53;;;;;;;2.03;0.77;;;22.40;96.30;;;;;;5088945;28;20426;-69
2022/08/01 07:18:19;;;;;;;2.60;1.10;;;22.60;95.60;;;;;;5090572;28;20467;-69
2022/08/01 07:20:46;;;;;;;2.20;1.07;;;22.80;95.60;;;;;;5100488;28;20222;-69
2022/08/01 07:23:12;;;;;;;2.70;0.80;;;23.00;95.50;;;;;;5101053;28;20188;-70
2022/08/01 07:25:38;;;;;;;2.03;0.83;;;23.20;94.70;;;;;;5115459;28;20426;-69
2022/08/01 07:28:04;;;;;;;2.30;1.00;;;23.40;94.40;;;;;;5124742;28;20515;-70
2022/08/01 07:30:30;;;;;;;2.37;0.70;;;23.70;93.10;;;;;;5107197;28;20191;-69
2022/08/01 07:32:56;;;;;;;2.10;1.00;;;24.10;92.30;;;;;;5115904;28;20183;-69
2022/08/01 07:35:22;;;;;;;3.07;1.10;;;24.30;91.70;;;;;;5104449;28;20430;-69
2022/08/01 07:37:47;;;;;;;2.50;0.93;;;24.60;91.80;;;;;;5115509;28;20572;-70
2022/08/01 07:40:13;;;;;;;2.70;1.40;;;24.90;91.20;;;;;;5091836;28;20175;-71
2022/08/01 07:42:43;;;;;;;2.70;1.17;;;25.40;89.50;;;;;;5093557;28;20195;-71
2022/08/01 07:45:09;;;;;;;2.03;1.07;;;26.00;89.60;;;;;;5080297;28;20448;-71
2022/08/01 07:47:35;;;;;;;2.08;0.90;;;27.00;87.20;;;;;;5084849;28;20212;-71
2022/08/01 07:50:02;;;;;;;2.35;1.08;;;28.30;81.90;;;;;;5091603;28;20214;-71
2022/08/01 07:52:27;;;;;;;2.95;1.50;;;28.90;77.90;;;;;;5093997;28;20180;-71
2022/08/01 07:54:53;;;;;;;2.58;1.10;;;29.50;76.30;;;;;;5093796;28;20261;-71
2022/08/01 07:57:19;;;;;;;5.65;1.20;;;29.70;75.90;;;;;;5093486;28;20203;-71
2022/08/01 07:59:44;;;;;;;3.25;1.33;;;30.10;73.40;;;;;;5088332;28;20211;-71
2022/08/01 08:02:10;;;;;;;2.25;0.93;;;30.20;73.00;;;;;;5082963;28;20203;-71
2022/08/01 08:04:36;;;;;;;5.35;1.45;;;30.10;72.30;;;;;;5086719;28;20191;-71
2022/08/01 08:07:01;;;;;;;2.67;1.30;;;30.00;72.50;;;;;;5084049;28;20221;-71
2022/08/01 08:09:27;;;;;;;2.50;1.15;;;29.90;72.00;;;;;;5089798;28;20178;-71
2022/08/01 08:11:53;;;;;;;5.32;2.35;;;30.20;71.70;;;;;;5073281;28;20217;-71
2022/08/01 08:14:19;;;;;;;2.85;1.48;;;30.80;70.20;;;;;;5089521;28;20193;-72
2022/08/01 08:16:45;;;;;;;20.00;2.05;;;30.60;70.80;;;;;;5082836;28;20177;-71
2022/08/01 08:19:11;;;;;;;2.05;1.25;;;30.50;70.50;;;;;;5072100;28;20213;-71
2022/08/01 08:21:38;;;;;;;3.80;1.80;;;30.30;71.00;;;;;;5088001;28;20187;-71
2022/08/01 08:24:23;;;;;;;2.28;1.40;;;30.50;69.30;;;;;;5080044;28;20184;-72
2022/08/01 08:26:52;;;;;;;2.40;1.30;;;30.60;68.90;;;;;;5091011;28;20258;-72
2022/08/01 08:29:19;;;;;;;3.95;1.77;;;30.90;68.80;;;;;;5086662;28;20185;-72
2022/08/01 08:31:45;;;;;;;3.53;1.60;;;30.70;69.50;;;;;;5083279;28;20770;-72
2022/08/01 08:34:11;;;;;;;2.83;1.63;;;30.50;70.40;;;;;;5092000;28;20192;-72
2022/08/01 08:36:37;;;;;;;3.38;1.45;;;30.20;71.40;;;;;;5093647;28;20536;-72
2022/08/01 08:39:03;;;;;;;4.97;1.70;;;30.60;70.80;;;;;;5087453;28;20208;-72
2022/08/01 08:41:35;;;;;;;3.35;1.35;;;30.80;68.70;;;;;;5072914;28;20176;-72
2022/08/01 08:44:05;;;;;;;2.88;1.67;;;30.10;70.40;;;;;;5086725;28;20180;-72
2022/08/01 08:46:35;;;;;;;2.45;1.30;;;29.50;73.70;;;;;;5072368;28;20181;-71
2022/08/01 08:49:03;;;;;;;3.25;1.58;;;30.10;71.20;;;;;;5073367;28;20183;-71
2022/08/01 08:51:31;;;;;;;5.30;1.35;;;30.60;71.10;;;;;;5072461;28;20176;-71
2022/08/01 08:53:57;;;;;;;2.58;1.13;;;31.20;70.60;;;;;;5072478;28;20260;-71
2022/08/01 08:56:29;;;;;;;3.15;1.58;;;31.70;66.90;;;;;;5075449;28;20607;-71
2022/08/01 08:58:57;;;;;;;4.45;1.90;;;31.00;67.80;;;;;;5083420;28;20246;-71
2022/08/01 09:01:22;;;;;;;3.20;1.58;;;30.60;67.80;;;;;;5084999;28;20234;-71
2022/08/01 09:03:48;;;;;;;3.00;1.60;;;30.20;69.00;;;;;;5073139;28;20657;-71
2022/08/01 09:06:14;;;;;;;3.42;1.88;;;30.00;67.60;;;;;;5088591;28;20182;-71
2022/08/01 09:08:40;;;;;;;2.85;1.88;;;29.60;70.50;;;;;;5082910;28;20196;-71
2022/08/01 09:11:05;;;;;;;3.28;1.60;;;30.30;69.00;;;;;;5074588;28;21349;-71
2022/08/01 09:13:31;;;;;;;3.10;1.55;;;30.40;68.50;;;;;;5085028;28;20253;-71
2022/08/01 09:15:58;;;;;;;3.55;1.77;;;30.40;70.90;;;;;;5075010;28;20218;-71
2022/08/01 09:18:34;;;;;;;3.42;1.58;;;30.60;69.40;;;;;;5071495;28;20299;-71
2022/08/01 09:21:06;;;;;;;19.42;4.82;;;30.10;70.10;;;;;;5085082;28;20185;-71
2022/08/01 09:23:42;;;;;;;2.83;1.42;;;29.50;69.90;;;;;;5072357;28;20210;-71
2022/08/01 09:26:18;;;;;;;4.20;1.80;;;29.20;70.60;;;;;;5079016;28;20172;-71
2022/08/01 09:28:45;;;;;;;3.22;1.75;;;28.60;73.90;;;;;;5078674;28;20172;-70
2022/08/01 09:31:14;;;;;;;3.53;1.60;;;27.90;74.90;;;;;;5069634;28;20475;-71
2022/08/01 09:33:54;;;;;;;3.03;1.40;;;27.40;77.70;;;;;;5074346;28;20192;-70
2022/08/01 09:36:25;;;;;;;2.85;1.58;;;27.00;78.70;;;;;;5074871;28;20188;-71
2022/08/01 09:38:52;;;;;;;5.82;1.67;;;27.50;78.80;;;;;;5087525;28;20308;-71
2022/08/01 09:41:29;;;;;;;7.63;1.55;;;28.60;73.60;;;;;;5071442;28;20180;-71
2022/08/01 09:43:55;;;;;;;4.18;1.85;;;29.40;70.50;;;;;;5078199;28;20184;-71
2022/08/01 09:46:21;;;;;;;3.85;1.63;;;29.50;69.10;;;;;;5078929;28;20184;-71
2022/08/01 09:49:00;;;;;;;2.80;1.38;;;28.90;72.20;;;;;;5077976;28;20534;-71
2022/08/01 09:51:35;;;;;;;6.70;1.70;;;28.00;74.10;;;;;;5077478;28;20255;-71
2022/08/01 09:54:04;;;;;;;5.40;1.90;;;28.00;74.30;;;;;;5091957;28;20673;-71
2022/08/01 09:56:42;;;;;;;3.22;1.70;;;28.00;73.50;;;;;;5085328;28;20172;-70
2022/08/01 09:59:09;;;;;;;3.60;1.73;;;28.30;73.30;;;;;;5086378;28;20245;-71
2022/08/01 10:01:47;;;;;;;2.78;1.30;;;28.80;72.20;;;;;;5089397;28;20247;-71
2022/08/01 10:04:18;;;;;;;2.50;1.30;;;28.90;71.20;;;;;;5089896;28;20176;-71
2022/08/01 10:06:49;;;;;;;3.72;1.45;;;29.40;70.00;;;;;;5079395;28;20540;-71
2022/08/01 10:09:15;;;;;;;3.83;1.40;;;29.50;71.30;;;;;;5078439;28;20275;-71
2022/08/01 10:11:43;;;;;;;3.08;1.20;;;30.30;67.50;;;;;;5082184;28;20562;-70
2022/08/01 10:14:09;;;;;;;21.73;4.70;;;29.90;67.60;;;;;;5080012;28;20554;-71
2022/08/01 10:16:36;;;;;;;3.63;2.00;;;28.90;71.00;;;;;;5079525;28;20176;-71
2022/08/01 10:19:06;;;;;;;4.03;2.13;;;28.40;72.50;;;;;;5079669;28;20199;-70
2022/08/01 10:21:36;;;;;;;3.60;2.13;;;28.30;74.10;;;;;;5090177;28;20176;-71
2022/08/01 10:24:04;;;;;;;3.90;2.03;;;28.20;75.20;;;;;;5077409;28;20187;-70
2022/08/01 10:26:33;;;;;;;5.63;2.70;;;27.90;76.10;;;;;;5080723;28;20180;-70
2022/08/01 10:28:59;;;;;;;4.27;2.23;;;28.00;77.10;;;;;;5074917;28;20188;-70
2022/08/01 10:31:25;;;;;;;2.67;1.47;;;28.30;73.60;;;;;;5083164;28;20180;-70
2022/08/01 10:33:52;;;;;;;11.67;1.83;;;28.20;73.40;;;;;;5087617;28;20180;-70
2022/08/01 10:36:20;;;;;;;3.13;1.90;;;28.10;75.20;;;;;;5070182;28;20184;-70
2022/08/01 10:38:46;;;;;;;7.40;2.53;;;28.10;75.00;;;;;;5091166;28;20295;-71
2022/08/01 10:41:15;;;;;;;4.57;2.30;;;27.70;75.30;;;;;;5090302;28;20535;-70
2022/08/01 10:43:41;;;;;;;3.60;1.97;;;27.60;75.50;;;;;;5080030;28;20203;-70
2022/08/01 10:46:07;;;;;;;4.33;2.23;;;27.40;75.90;;;;;;5070146;28;20664;-70
2022/08/01 10:48:49;;;;;;;3.67;1.63;;;27.10;78.30;;;;;;5070599;28;20776;-70
2022/08/01 10:51:16;;;;;;;4.20;1.90;;;26.70;79.60;;;;;;5083771;28;20417;-69
2022/08/01 10:53:51;;;;;;;3.50;2.00;;;26.50;80.00;;;;;;5083867;28;20414;-70
2022/08/01 10:56:17;;;;;;;4.30;2.10;;;26.50;78.10;;;;;;5076180;28;20441;-70
2022/08/01 10:58:44;;;;;;;4.33;1.87;;;26.20;79.60;;;;;;5090847;28;20449;-70
2022/08/01 11:01:39;;;;;;;3.93;1.90;;;26.20;80.70;;;;;;5089159;28;20259;-70
2022/08/01 11:04:10;;;;;;;3.40;1.73;;;26.20;81.50;;;;;;5069414;28;20454;-70
2022/08/01 11:06:44;;;;;;;2.73;1.37;;;26.30;79.70;;;;;;5090376;28;20423;-70
2022/08/01 11:09:13;;;;;;;3.03;1.40;;;26.40;77.50;;;;;;5084266;28;20424;-70
2022/08/01 11:12:10;;;;;;;3.93;2.00;;;26.30;80.30;;;;;;5077729;28;20910;-71
2022/08/01 11:14:57;;;;;;;5.77;2.07;;;26.20;80.00;;;;;;5090625;28;20528;-70
2022/08/01 11:17:47;;;;;;;3.93;1.97;;;26.10;81.60;;;;;;5088549;28;20445;-70
2022/08/01 11:20:14;;;;;;;5.27;2.60;;;26.20;81.10;;;;;;5079030;28;20503;-70
2022/08/01 11:22:58;;;;;;;3.30;1.80;;;26.10;80.40;;;;;;5074664;28;20410;-70
2022/08/01 11:25:24;;;;;;;2.80;1.53;;;26.30;78.80;;;;;;5086616;28;20472;-70
2022/08/01 11:28:13;;;;;;;3.57;1.97;;;26.70;77.80;;;;;;5090443;28;20418;-70
2022/08/01 11:30:39;;;;;;;5.83;2.03;;;26.90;77.70;;;;;;5085807;28;20798;-70
2022/08/01 11:33:06;;;;;;;2.23;0.97;;;26.90;77.50;;;;;;5081506;28;20489;-70
2022/08/01 11:35:32;;;;;;;2.93;1.43;;;27.10;78.50;;;;;;5090563;28;20306;-70
2022/08/01 11:38:26;;;;;;;4.93;1.70;;;27.30;76.00;;;;;;5074380;28;20989;-70
2022/08/01 11:41:25;;;;;;;3.40;1.73;;;27.70;74.20;;;;;;5078247;28;20426;-70
2022/08/01 11:44:04;;;;;;;3.43;1.43;;;27.90;74.80;;;;;;5040916;28;20196;-70
2022/08/01 11:46:56;;;;;;;9.23;1.60;;;28.30;72.90;;;;;;5089401;28;20209;-69
2022/08/01 11:49:28;;;;;;;3.73;1.83;;;28.00;75.80;;;;;;5090895;28;20207;-70
2022/08/01 11:52:03;;;;;;;3.67;1.33;;;27.80;77.60;;;;;;5081973;28;20183;-70
2022/08/01 11:54:31;;;;;;;3.80;2.17;;;27.70;74.80;;;;;;5082428;28;20581;-70
2022/08/01 11:56:59;;;;;;;5.67;1.23;;;27.50;78.50;;;;;;5084647;28;20233;-70
2022/08/01 11:59:25;;;;;;;3.00;1.57;;;27.30;74.70;;;;;;5086741;28;20576;-70
2022/08/01 12:01:51;;;;;;;3.00;1.37;;;26.90;75.40;;;;;;5087299;28;20184;-70
2022/08/01 12:04:17;;;;;;;3.57;1.60;;;26.80;76.10;;;;;;5087961;28;20482;-69
2022/08/01 12:06:43;;;;;;;3.13;1.40;;;26.40;78.10;;;;;;5088701;28;20516;-70
2022/08/01 12:09:17;;;;;;;2.43;1.37;;;26.30;78.50;;;;;;5080362;28;20426;-70
2022/08/01 12:11:43;;;;;;;4.30;1.83;;;26.50;77.30;;;;;;5088474;28;20191;-71
2022/08/01 12:14:10;;;;;;;2.10;1.20;;;27.00;77.80;;;;;;5087335;28;20514;-71
2022/08/01 12:16:36;;;;;;;9.33;1.70;;;27.30;77.00;;;;;;5087719;28;20620;-70
2022/08/01 12:19:02;;;;;;;2.77;1.30;;;27.60;75.30;;;;;;5086367;28;21146;-70
2022/08/01 12:21:28;;;;;;;3.13;0.93;;;28.10;72.90;;;;;;5088054;28;20696;-70
2022/08/01 12:24:01;;;;;;;2.90;1.57;;;28.10;72.30;;;;;;5087331;28;20418;-70
2022/08/01 12:26:41;;;;;;;3.93;1.40;;;28.40;73.20;;;;;;5088229;28;20186;-70
2022/08/01 12:29:07;;;;;;;4.13;1.50;;;28.50;73.30;;;;;;5092336;28;20228;-70
2022/08/01 12:31:34;;;;;;;3.97;1.60;;;28.60;71.90;;;;;;5082822;28;20172;-70
2022/08/01 12:34:27;;;;;;;3.27;1.63;;;28.90;71.00;;;;;;5091824;28;20569;-70
2022/08/01 12:36:56;;;;;;;2.65;1.50;;;29.30;67.10;;;;;;5090970;28;20245;-70
2022/08/01 12:39:22;;;;;;;3.30;1.88;;;29.30;70.10;;;;;;5092379;28;20192;-70
2022/08/01 12:41:48;;;;;;;3.58;1.55;;;29.40;70.60;;;;;;5079616;28;20262;-70
2022/08/01 12:44:14;;;;;;;3.42;0.88;;;29.60;67.50;;;;;;5091988;28;20266;-71
2022/08/01 12:46:41;;;;;;;2.90;1.70;;;29.60;65.00;;;;;;5089173;28;20233;-72
2022/08/01 12:49:07;;;;;;;2.40;1.40;;;29.60;67.90;;;;;;5092334;28;20196;-71
2022/08/01 12:51:33;;;;;;;4.45;1.58;;;29.40;68.00;;;;;;5085473;28;20189;-71
2022/08/01 12:53:59;;;;;;;2.10;1.00;;;28.90;68.30;;;;;;5081569;28;20259;-71